Elkhorn, Missouri
Current Conditions -  °F | °C
As of 5:15 AM on Saturday 20 Dec 2014 (Local Time) from KFYG Reporting Station
Haze Haze  
Wind Chill: 29°   Ceiling: 1900
Heat Index: 36°   Visibility: 5mi
Dew Point: 32°   Wind: 8mph
Humidity: 87%   Direction: 120°ESE
Pressure: 30.23"   Gusts: NA
Location:  38.7835°N, 91.2441°W
Report Text: KFYG 201115Z AUTO 12007KT 5SM BR OVC019 02/00 A3023 RMK AO2
Loading
Personal Weather Stations






























Interactive Weather Map New forecast layout! Learn more

10-Day Weather Forecast

Advertisements
Track Severe Weather on mobile